Etusivu
METAR-TAF:

METAR-TAF

Lentoasemat :

New Braunfels Municipal Airport

New Braunfels, Texas, Yhdysvallat

Leveyspiiri: 29-42-31N, Pituuspiiri: 098-02-43W, korkeus merenpinnasta: 197 m

Tämänhetkinen sää

Tämä raportti tehtiin 28 minuuttia sitten, kello 05.51 UTC
Tuuli 11 kn etelästä
Lämpötila 20°C
Kosteus 83%
Ilmanpaine 1016 hPa
Näkyvyys: 16.1 km
Pilvistä 1800 ft:n korkeudessa

METAR: KBAZ 220551Z AUTO 17011KT 10SM OVC018 20/17 A3001 RMK AO2 SLP155 T02000172 10256 20200 402890117 51009 $

Aika: 01:19 (06:19 UTC)


TAF: puuttuu

Säähavainnot ja -ennusteet yli 4000 lentoasemalta (METAR- ja TAF-raportit).

Käytössä olevat sääasemat on merkitty karttaan keltaisilla ja punaisilla pisteillä.

Aseta hiiri pisteen päälle nähdäksesi sääaseman nimen.

Klikkaa sitten nähdäksesi säähavainnot ja -ennusteet.

Kartan vaihtaminen: klikkaa mustalla rastilla varustettuja vihreitä pisteitä, niin voit zoomata sisään; viivalla varustettua vihreää pistettä, niin voit zoomata ulos tai vihreitä nuolia, niin pääset viereisille kartoille.


METAR-TAF: